sensor_id;sensor_type;location;lat;lon;timestamp;temperature;humidity
20446;DHT22;10382;49.140;9.234;2023-04-15T00:02:15;8.80;99.90
20446;DHT22;10382;49.140;9.234;2023-04-15T00:04:44;8.80;99.90
20446;DHT22;10382;49.140;9.234;2023-04-15T00:07:11;8.80;99.90
20446;DHT22;10382;49.140;9.234;2023-04-15T00:09:38;8.70;99.90
20446;DHT22;10382;49.140;9.234;2023-04-15T00:12:05;8.60;99.90
20446;DHT22;10382;49.140;9.234;2023-04-15T00:14:33;8.60;99.90
20446;DHT22;10382;49.140;9.234;2023-04-15T00:17:01;8.60;99.90
20446;DHT22;10382;49.140;9.234;2023-04-15T00:19:28;8.50;99.90
20446;DHT22;10382;49.140;9.234;2023-04-15T00:21:57;8.50;99.90
20446;DHT22;10382;49.140;9.234;2023-04-15T00:24:24;8.40;99.90
20446;DHT22;10382;49.140;9.234;2023-04-15T00:26:51;8.40;99.90
20446;DHT22;10382;49.140;9.234;2023-04-15T00:29:18;8.30;99.90
20446;DHT22;10382;49.140;9.234;2023-04-15T00:31:45;8.20;99.90
20446;DHT22;10382;49.140;9.234;2023-04-15T00:34:12;7.90;99.90
20446;DHT22;10382;49.140;9.234;2023-04-15T00:36:39;7.80;99.90
20446;DHT22;10382;49.140;9.234;2023-04-15T00:39:08;7.70;99.90
20446;DHT22;10382;49.140;9.234;2023-04-15T00:41:35;7.70;99.90
20446;DHT22;10382;49.140;9.234;2023-04-15T00:44:04;7.70;99.90
20446;DHT22;10382;49.140;9.234;2023-04-15T00:46:32;7.80;99.90
20446;DHT22;10382;49.140;9.234;2023-04-15T00:49:02;7.70;99.90
20446;DHT22;10382;49.140;9.234;2023-04-15T00:51:29;7.70;99.90
20446;DHT22;10382;49.140;9.234;2023-04-15T00:53:58;7.70;99.90
20446;DHT22;10382;49.140;9.234;2023-04-15T00:56:28;7.80;99.90
20446;DHT22;10382;49.140;9.234;2023-04-15T00:58:55;7.80;99.90
20446;DHT22;10382;49.140;9.234;2023-04-15T01:01:24;7.90;99.90
20446;DHT22;10382;49.140;9.234;2023-04-15T01:03:51;7.90;99.90
20446;DHT22;10382;49.140;9.234;2023-04-15T01:06:18;7.90;99.90
20446;DHT22;10382;49.140;9.234;2023-04-15T01:08:46;7.70;99.90
20446;DHT22;10382;49.140;9.234;2023-04-15T01:11:13;7.40;99.90
20446;DHT22;10382;49.140;9.234;2023-04-15T01:13:42;7.30;99.90
20446;DHT22;10382;49.140;9.234;2023-04-15T01:16:09;7.20;99.90
20446;DHT22;10382;49.140;9.234;2023-04-15T01:18:36;7.20;99.90
20446;DHT22;10382;49.140;9.234;2023-04-15T01:21:04;7.20;99.90
20446;DHT22;10382;49.140;9.234;2023-04-15T01:23:32;7.30;99.90
20446;DHT22;10382;49.140;9.234;2023-04-15T01:26:03;7.40;99.90
20446;DHT22;10382;49.140;9.234;2023-04-15T01:28:30;7.40;99.90
20446;DHT22;10382;49.140;9.234;2023-04-15T01:31:09;7.50;99.90
20446;DHT22;10382;49.140;9.234;2023-04-15T01:33:37;7.50;99.90
20446;DHT22;10382;49.140;9.234;2023-04-15T01:36:05;7.60;99.90
20446;DHT22;10382;49.140;9.234;2023-04-15T01:38:33;7.60;99.90
20446;DHT22;10382;49.140;9.234;2023-04-15T01:41:00;7.60;99.90
20446;DHT22;10382;49.140;9.234;2023-04-15T01:43:30;7.60;99.90
20446;DHT22;10382;49.140;9.234;2023-04-15T01:45:56;7.60;99.90
20446;DHT22;10382;49.140;9.234;2023-04-15T01:48:23;7.50;99.90
20446;DHT22;10382;49.140;9.234;2023-04-15T01:50:53;7.40;99.90
20446;DHT22;10382;49.140;9.234;2023-04-15T01:53:22;7.20;99.90
20446;DHT22;10382;49.140;9.234;2023-04-15T01:55:49;7.00;99.90
20446;DHT22;10382;49.140;9.234;2023-04-15T01:58:16;6.80;99.90
20446;DHT22;10382;49.140;9.234;2023-04-15T02:00:44;6.80;99.90
20446;DHT22;10382;49.140;9.234;2023-04-15T02:03:11;6.80;99.90
20446;DHT22;10382;49.140;9.234;2023-04-15T02:05:37;6.80;99.90
20446;DHT22;10382;49.140;9.234;2023-04-15T02:08:04;6.80;99.90
20446;DHT22;10382;49.140;9.234;2023-04-15T02:10:31;6.90;99.90
20446;DHT22;10382;49.140;9.234;2023-04-15T02:12:58;6.90;99.90
20446;DHT22;10382;49.140;9.234;2023-04-15T02:15:25;7.00;99.90
20446;DHT22;10382;49.140;9.234;2023-04-15T02:17:53;7.10;99.90
20446;DHT22;10382;49.140;9.234;2023-04-15T02:20:20;7.10;99.90
20446;DHT22;10382;49.140;9.234;2023-04-15T02:22:48;7.00;99.90
20446;DHT22;10382;49.140;9.234;2023-04-15T02:25:15;7.00;99.90
20446;DHT22;10382;49.140;9.234;2023-04-15T02:27:42;7.00;99.90
20446;DHT22;10382;49.140;9.234;2023-04-15T02:30:09;6.90;99.90
20446;DHT22;10382;49.140;9.234;2023-04-15T02:32:36;6.80;99.90
20446;DHT22;10382;49.140;9.234;2023-04-15T02:35:06;6.80;99.90
20446;DHT22;10382;49.140;9.234;2023-04-15T02:37:35;6.80;99.90
20446;DHT22;10382;49.140;9.234;2023-04-15T02:40:06;6.70;99.90
20446;DHT22;10382;49.140;9.234;2023-04-15T02:42:33;6.70;99.90
20446;DHT22;10382;49.140;9.234;2023-04-15T02:45:00;6.60;99.90
20446;DHT22;10382;49.140;9.234;2023-04-15T02:47:27;6.60;99.90
20446;DHT22;10382;49.140;9.234;2023-04-15T02:49:54;6.50;99.90
20446;DHT22;10382;49.140;9.234;2023-04-15T02:52:24;6.40;99.90
20446;DHT22;10382;49.140;9.234;2023-04-15T02:54:51;6.40;99.90
20446;DHT22;10382;49.140;9.234;2023-04-15T02:57:18;6.50;99.90
20446;DHT22;10382;49.140;9.234;2023-04-15T02:59:45;6.40;99.90
20446;DHT22;10382;49.140;9.234;2023-04-15T03:02:12;6.40;99.90
20446;DHT22;10382;49.140;9.234;2023-04-15T03:04:39;6.40;99.90
20446;DHT22;10382;49.140;9.234;2023-04-15T03:07:05;6.50;99.90
20446;DHT22;10382;49.140;9.234;2023-04-15T03:09:34;6.50;99.90
20446;DHT22;10382;49.140;9.234;2023-04-15T03:12:01;6.60;99.90
20446;DHT22;10382;49.140;9.234;2023-04-15T03:14:27;6.70;99.90
20446;DHT22;10382;49.140;9.234;2023-04-15T03:16:54;6.70;99.90
20446;DHT22;10382;49.140;9.234;2023-04-15T03:19:21;6.70;99.90
20446;DHT22;10382;49.140;9.234;2023-04-15T03:21:48;6.60;99.90
20446;DHT22;10382;49.140;9.234;2023-04-15T03:24:16;6.50;99.90
20446;DHT22;10382;49.140;9.234;2023-04-15T03:26:44;6.60;99.90
20446;DHT22;10382;49.140;9.234;2023-04-15T03:29:11;6.60;99.90
20446;DHT22;10382;49.140;9.234;2023-04-15T03:31:38;6.70;99.90
20446;DHT22;10382;49.140;9.234;2023-04-15T03:34:05;6.70;99.90
20446;DHT22;10382;49.140;9.234;2023-04-15T03:36:32;6.80;99.90
20446;DHT22;10382;49.140;9.234;2023-04-15T03:38:59;6.80;99.90
20446;DHT22;10382;49.140;9.234;2023-04-15T03:41:26;6.80;99.90
20446;DHT22;10382;49.140;9.234;2023-04-15T03:43:55;6.80;99.90
20446;DHT22;10382;49.140;9.234;2023-04-15T03:46:22;6.90;99.90
20446;DHT22;10382;49.140;9.234;2023-04-15T03:48:49;6.90;99.90
20446;DHT22;10382;49.140;9.234;2023-04-15T03:51:16;6.90;99.90
20446;DHT22;10382;49.140;9.234;2023-04-15T03:53:43;6.80;99.90
20446;DHT22;10382;49.140;9.234;2023-04-15T03:56:10;6.90;99.90
20446;DHT22;10382;49.140;9.234;2023-04-15T03:58:37;6.80;99.90
20446;DHT22;10382;49.140;9.234;2023-04-15T04:01:05;6.70;99.90
20446;DHT22;10382;49.140;9.234;2023-04-15T04:03:32;6.70;99.90
20446;DHT22;10382;49.140;9.234;2023-04-15T04:05:59;6.70;99.90
20446;DHT22;10382;49.140;9.234;2023-04-15T04:08:26;6.60;99.90
20446;DHT22;10382;49.140;9.234;2023-04-15T04:10:53;6.50;99.90
20446;DHT22;10382;49.140;9.234;2023-04-15T04:13:20;6.50;99.90
20446;DHT22;10382;49.140;9.234;2023-04-15T04:15:47;6.50;99.90
20446;DHT22;10382;49.140;9.234;2023-04-15T04:18:15;6.50;99.90
20446;DHT22;10382;49.140;9.234;2023-04-15T04:20:42;6.50;99.90
20446;DHT22;10382;49.140;9.234;2023-04-15T04:23:09;6.40;99.90
20446;DHT22;10382;49.140;9.234;2023-04-15T04:25:36;6.40;99.90
20446;DHT22;10382;49.140;9.234;2023-04-15T04:28:03;6.40;99.90
20446;DHT22;10382;49.140;9.234;2023-04-15T04:30:30;6.50;99.90
20446;DHT22;10382;49.140;9.234;2023-04-15T04:32:57;6.40;99.90
20446;DHT22;10382;49.140;9.234;2023-04-15T04:35:25;6.50;99.90
20446;DHT22;10382;49.140;9.234;2023-04-15T04:37:52;6.50;99.90
20446;DHT22;10382;49.140;9.234;2023-04-15T04:40:19;6.50;99.90
20446;DHT22;10382;49.140;9.234;2023-04-15T04:42:46;6.50;99.90
20446;DHT22;10382;49.140;9.234;2023-04-15T04:45:13;6.60;99.90
20446;DHT22;10382;49.140;9.234;2023-04-15T04:47:40;6.60;99.90
20446;DHT22;10382;49.140;9.234;2023-04-15T04:50:07;6.70;99.90
20446;DHT22;10382;49.140;9.234;2023-04-15T04:52:36;6.70;99.90
20446;DHT22;10382;49.140;9.234;2023-04-15T04:55:04;6.70;99.90
20446;DHT22;10382;49.140;9.234;2023-04-15T04:57:31;6.70;99.90
20446;DHT22;10382;49.140;9.234;2023-04-15T04:59:58;6.70;99.90
20446;DHT22;10382;49.140;9.234;2023-04-15T05:02:25;6.80;99.90
20446;DHT22;10382;49.140;9.234;2023-04-15T05:04:52;6.80;99.90
20446;DHT22;10382;49.140;9.234;2023-04-15T05:07:19;6.80;99.90
20446;DHT22;10382;49.140;9.234;2023-04-15T05:09:48;6.70;99.90
20446;DHT22;10382;49.140;9.234;2023-04-15T05:12:14;6.60;99.90
20446;DHT22;10382;49.140;9.234;2023-04-15T05:14:43;6.50;99.90
20446;DHT22;10382;49.140;9.234;2023-04-15T05:17:11;6.30;99.90
20446;DHT22;10382;49.140;9.234;2023-04-15T05:19:38;6.20;99.90
20446;DHT22;10382;49.140;9.234;2023-04-15T05:22:05;6.20;99.90
20446;DHT22;10382;49.140;9.234;2023-04-15T05:24:32;6.10;99.90
20446;DHT22;10382;49.140;9.234;2023-04-15T05:27:00;6.10;99.90
20446;DHT22;10382;49.140;9.234;2023-04-15T05:29:28;6.10;99.90
20446;DHT22;10382;49.140;9.234;2023-04-15T05:31:55;6.10;99.90
20446;DHT22;10382;49.140;9.234;2023-04-15T05:34:22;6.10;99.90
20446;DHT22;10382;49.140;9.234;2023-04-15T05:36:49;6.10;99.90
20446;DHT22;10382;49.140;9.234;2023-04-15T05:39:17;6.20;99.90
20446;DHT22;10382;49.140;9.234;2023-04-15T05:41:44;6.30;99.90
20446;DHT22;10382;49.140;9.234;2023-04-15T05:44:12;6.30;99.90
20446;DHT22;10382;49.140;9.234;2023-04-15T05:46:39;6.40;99.90
20446;DHT22;10382;49.140;9.234;2023-04-15T05:49:06;6.60;99.90
20446;DHT22;10382;49.140;9.234;2023-04-15T05:51:33;6.70;99.90
20446;DHT22;10382;49.140;9.234;2023-04-15T05:54:00;6.80;99.90
20446;DHT22;10382;49.140;9.234;2023-04-15T05:56:27;6.80;99.90
20446;DHT22;10382;49.140;9.234;2023-04-15T05:58:54;6.90;99.90
20446;DHT22;10382;49.140;9.234;2023-04-15T06:01:22;7.00;99.90
20446;DHT22;10382;49.140;9.234;2023-04-15T06:03:49;7.10;99.90
20446;DHT22;10382;49.140;9.234;2023-04-15T06:06:17;7.20;99.90
20446;DHT22;10382;49.140;9.234;2023-04-15T06:08:44;7.30;99.90
20446;DHT22;10382;49.140;9.234;2023-04-15T06:11:11;7.40;99.90
20446;DHT22;10382;49.140;9.234;2023-04-15T06:13:38;7.60;99.90
20446;DHT22;10382;49.140;9.234;2023-04-15T06:16:06;7.60;99.90
20446;DHT22;10382;49.140;9.234;2023-04-15T06:18:34;7.80;99.90
20446;DHT22;10382;49.140;9.234;2023-04-15T06:21:01;8.00;99.90
20446;DHT22;10382;49.140;9.234;2023-04-15T06:23:28;8.10;99.90
20446;DHT22;10382;49.140;9.234;2023-04-15T06:25:54;8.30;99.90
20446;DHT22;10382;49.140;9.234;2023-04-15T06:28:21;8.60;99.90
20446;DHT22;10382;49.140;9.234;2023-04-15T06:30:48;8.90;99.90
20446;DHT22;10382;49.140;9.234;2023-04-15T06:33:15;9.20;99.90
20446;DHT22;10382;49.140;9.234;2023-04-15T06:35:43;9.50;99.90
20446;DHT22;10382;49.140;9.234;2023-04-15T06:38:10;9.70;99.90
20446;DHT22;10382;49.140;9.234;2023-04-15T06:40:37;9.90;99.90
20446;DHT22;10382;49.140;9.234;2023-04-15T06:43:04;10.10;99.90
20446;DHT22;10382;49.140;9.234;2023-04-15T06:45:31;10.30;99.90
20446;DHT22;10382;49.140;9.234;2023-04-15T06:47:58;10.40;99.90
20446;DHT22;10382;49.140;9.234;2023-04-15T06:50:25;10.60;99.90
20446;DHT22;10382;49.140;9.234;2023-04-15T06:52:55;10.70;99.90
20446;DHT22;10382;49.140;9.234;2023-04-15T06:55:22;10.80;99.90
20446;DHT22;10382;49.140;9.234;2023-04-15T06:57:49;10.90;99.90
20446;DHT22;10382;49.140;9.234;2023-04-15T07:00:16;11.00;99.90
20446;DHT22;10382;49.140;9.234;2023-04-15T07:02:43;11.00;99.90
20446;DHT22;10382;49.140;9.234;2023-04-15T07:05:11;11.10;99.90
20446;DHT22;10382;49.140;9.234;2023-04-15T07:07:37;11.20;99.90
20446;DHT22;10382;49.140;9.234;2023-04-15T07:10:07;11.30;99.90
20446;DHT22;10382;49.140;9.234;2023-04-15T07:12:34;11.40;99.90
20446;DHT22;10382;49.140;9.234;2023-04-15T07:15:01;11.50;99.90
20446;DHT22;10382;49.140;9.234;2023-04-15T07:17:29;11.70;99.90
20446;DHT22;10382;49.140;9.234;2023-04-15T07:19:55;12.00;99.90
20446;DHT22;10382;49.140;9.234;2023-04-15T07:22:22;12.20;99.90
20446;DHT22;10382;49.140;9.234;2023-04-15T07:24:49;12.40;99.90
20446;DHT22;10382;49.140;9.234;2023-04-15T07:27:17;12.50;99.90
20446;DHT22;10382;49.140;9.234;2023-04-15T07:29:44;12.70;99.90
20446;DHT22;10382;49.140;9.234;2023-04-15T07:32:11;12.90;99.90
20446;DHT22;10382;49.140;9.234;2023-04-15T07:34:38;12.90;99.90
20446;DHT22;10382;49.140;9.234;2023-04-15T07:37:06;13.10;99.90
20446;DHT22;10382;49.140;9.234;2023-04-15T07:39:32;13.30;99.90
20446;DHT22;10382;49.140;9.234;2023-04-15T07:41:59;13.50;99.90
20446;DHT22;10382;49.140;9.234;2023-04-15T07:44:27;13.80;99.90
20446;DHT22;10382;49.140;9.234;2023-04-15T07:46:55;14.10;99.90
20446;DHT22;10382;49.140;9.234;2023-04-15T07:49:22;14.40;99.90
20446;DHT22;10382;49.140;9.234;2023-04-15T07:51:49;14.60;99.90
20446;DHT22;10382;49.140;9.234;2023-04-15T07:54:16;15.00;99.90
20446;DHT22;10382;49.140;9.234;2023-04-15T07:56:42;15.20;99.90
20446;DHT22;10382;49.140;9.234;2023-04-15T07:59:09;15.30;99.90
20446;DHT22;10382;49.140;9.234;2023-04-15T08:01:38;15.20;99.90
20446;DHT22;10382;49.140;9.234;2023-04-15T08:04:05;15.20;99.90
20446;DHT22;10382;49.140;9.234;2023-04-15T08:06:32;15.10;99.90
20446;DHT22;10382;49.140;9.234;2023-04-15T08:08:59;15.00;99.90
20446;DHT22;10382;49.140;9.234;2023-04-15T08:11:26;15.10;99.90
20446;DHT22;10382;49.140;9.234;2023-04-15T08:13:53;15.40;99.90
20446;DHT22;10382;49.140;9.234;2023-04-15T08:16:21;15.20;99.90
20446;DHT22;10382;49.140;9.234;2023-04-15T08:18:51;15.10;99.90
20446;DHT22;10382;49.140;9.234;2023-04-15T08:21:18;15.20;99.90
20446;DHT22;10382;49.140;9.234;2023-04-15T08:23:46;15.30;99.90
20446;DHT22;10382;49.140;9.234;2023-04-15T08:26:14;15.70;99.90
20446;DHT22;10382;49.140;9.234;2023-04-15T08:28:41;16.10;99.90
20446;DHT22;10382;49.140;9.234;2023-04-15T08:31:08;16.20;99.90
20446;DHT22;10382;49.140;9.234;2023-04-15T08:33:35;16.30;99.90
20446;DHT22;10382;49.140;9.234;2023-04-15T08:36:04;16.10;99.90
20446;DHT22;10382;49.140;9.234;2023-04-15T08:38:32;16.00;99.90
20446;DHT22;10382;49.140;9.234;2023-04-15T08:41:02;16.10;99.90
20446;DHT22;10382;49.140;9.234;2023-04-15T08:43:33;16.10;99.90
20446;DHT22;10382;49.140;9.234;2023-04-15T08:46:01;16.10;99.90
20446;DHT22;10382;49.140;9.234;2023-04-15T08:48:32;16.10;99.90
20446;DHT22;10382;49.140;9.234;2023-04-15T08:51:00;16.10;99.90
20446;DHT22;10382;49.140;9.234;2023-04-15T08:53:29;16.20;99.90
20446;DHT22;10382;49.140;9.234;2023-04-15T08:55:57;16.30;99.90
20446;DHT22;10382;49.140;9.234;2023-04-15T08:58:25;16.40;99.90
20446;DHT22;10382;49.140;9.234;2023-04-15T09:00:53;16.30;99.90
20446;DHT22;10382;49.140;9.234;2023-04-15T09:03:20;16.40;99.90
20446;DHT22;10382;49.140;9.234;2023-04-15T09:05:49;16.60;99.90
20446;DHT22;10382;49.140;9.234;2023-04-15T09:08:16;16.80;99.90
20446;DHT22;10382;49.140;9.234;2023-04-15T09:10:44;17.10;99.90
20446;DHT22;10382;49.140;9.234;2023-04-15T09:13:11;17.40;99.90
20446;DHT22;10382;49.140;9.234;2023-04-15T09:15:38;17.90;99.90
20446;DHT22;10382;49.140;9.234;2023-04-15T09:18:05;18.20;99.90
20446;DHT22;10382;49.140;9.234;2023-04-15T09:20:38;18.60;99.90
20446;DHT22;10382;49.140;9.234;2023-04-15T09:23:11;19.00;99.90
20446;DHT22;10382;49.140;9.234;2023-04-15T09:25:39;19.20;99.90
20446;DHT22;10382;49.140;9.234;2023-04-15T09:28:08;19.40;99.90
20446;DHT22;10382;49.140;9.234;2023-04-15T09:30:35;19.60;99.90
20446;DHT22;10382;49.140;9.234;2023-04-15T09:33:03;19.60;98.70
20446;DHT22;10382;49.140;9.234;2023-04-15T09:35:33;19.60;97.80
20446;DHT22;10382;49.140;9.234;2023-04-15T09:38:04;19.60;98.70
20446;DHT22;10382;49.140;9.234;2023-04-15T09:40:33;19.70;96.50
20446;DHT22;10382;49.140;9.234;2023-04-15T09:43:01;19.80;97.20
20446;DHT22;10382;49.140;9.234;2023-04-15T09:45:29;20.10;98.00
20446;DHT22;10382;49.140;9.234;2023-04-15T09:47:57;20.40;95.30
20446;DHT22;10382;49.140;9.234;2023-04-15T09:50:26;20.80;95.00
20446;DHT22;10382;49.140;9.234;2023-04-15T09:52:54;21.00;92.20
20446;DHT22;10382;49.140;9.234;2023-04-15T09:55:21;21.00;92.20
20446;DHT22;10382;49.140;9.234;2023-04-15T09:57:48;21.10;90.20
20446;DHT22;10382;49.140;9.234;2023-04-15T10:00:15;21.00;85.60
20446;DHT22;10382;49.140;9.234;2023-04-15T10:02:44;21.10;89.10
20446;DHT22;10382;49.140;9.234;2023-04-15T10:05:13;21.20;89.80
20446;DHT22;10382;49.140;9.234;2023-04-15T10:07:41;21.40;87.50
20446;DHT22;10382;49.140;9.234;2023-04-15T10:10:10;21.60;84.80
20446;DHT22;10382;49.140;9.234;2023-04-15T10:12:37;21.80;79.80
20446;DHT22;10382;49.140;9.234;2023-04-15T10:15:11;22.00;77.70
20446;DHT22;10382;49.140;9.234;2023-04-15T10:17:44;22.10;79.10
20446;DHT22;10382;49.140;9.234;2023-04-15T10:20:11;22.20;74.50
20446;DHT22;10382;49.140;9.234;2023-04-15T10:22:40;22.30;74.40
20446;DHT22;10382;49.140;9.234;2023-04-15T10:25:09;22.20;74.20
20446;DHT22;10382;49.140;9.234;2023-04-15T10:27:37;22.00;74.00
20446;DHT22;10382;49.140;9.234;2023-04-15T10:30:06;21.90;76.20
20446;DHT22;10382;49.140;9.234;2023-04-15T10:32:34;21.70;72.20
20446;DHT22;10382;49.140;9.234;2023-04-15T10:35:04;21.60;70.60
20446;DHT22;10382;49.140;9.234;2023-04-15T10:37:34;21.20;72.70
20446;DHT22;10382;49.140;9.234;2023-04-15T10:40:23;21.20;76.10
20446;DHT22;10382;49.140;9.234;2023-04-15T10:42:52;21.20;74.50
20446;DHT22;10382;49.140;9.234;2023-04-15T10:45:19;21.10;74.20
20446;DHT22;10382;49.140;9.234;2023-04-15T10:47:51;21.10;74.10
20446;DHT22;10382;49.140;9.234;2023-04-15T10:50:20;20.90;77.00
20446;DHT22;10382;49.140;9.234;2023-04-15T10:52:49;20.70;76.20
20446;DHT22;10382;49.140;9.234;2023-04-15T10:55:19;20.60;75.10
20446;DHT22;10382;49.140;9.234;2023-04-15T10:57:46;20.40;75.40
20446;DHT22;10382;49.140;9.234;2023-04-15T11:00:18;20.20;77.40
20446;DHT22;10382;49.140;9.234;2023-04-15T11:02:46;20.10;77.70
20446;DHT22;10382;49.140;9.234;2023-04-15T11:05:14;19.80;78.70
20446;DHT22;10382;49.140;9.234;2023-04-15T11:07:49;19.70;80.70
20446;DHT22;10382;49.140;9.234;2023-04-15T11:10:50;19.60;81.70
20446;DHT22;10382;49.140;9.234;2023-04-15T11:13:23;19.40;78.00
20446;DHT22;10382;49.140;9.234;2023-04-15T11:15:58;19.20;78.20
20446;DHT22;10382;49.140;9.234;2023-04-15T11:18:31;19.00;79.30
20446;DHT22;10382;49.140;9.234;2023-04-15T11:21:04;19.00;82.10
20446;DHT22;10382;49.140;9.234;2023-04-15T11:23:37;18.70;69.40
20446;DHT22;10382;49.140;9.234;2023-04-15T11:26:06;18.40;65.50
20446;DHT22;10382;49.140;9.234;2023-04-15T11:28:37;18.10;68.20
20446;DHT22;10382;49.140;9.234;2023-04-15T11:31:08;18.00;67.00
20446;DHT22;10382;49.140;9.234;2023-04-15T11:33:36;17.90;67.30
20446;DHT22;10382;49.140;9.234;2023-04-15T11:36:04;18.00;65.50
20446;DHT22;10382;49.140;9.234;2023-04-15T11:38:31;17.80;65.40
20446;DHT22;10382;49.140;9.234;2023-04-15T11:41:01;17.80;63.80
20446;DHT22;10382;49.140;9.234;2023-04-15T11:43:31;17.80;63.70
20446;DHT22;10382;49.140;9.234;2023-04-15T11:46:01;17.80;66.80
20446;DHT22;10382;49.140;9.234;2023-04-15T11:48:29;17.70;63.90
20446;DHT22;10382;49.140;9.234;2023-04-15T11:50:57;17.60;60.90
20446;DHT22;10382;49.140;9.234;2023-04-15T11:53:35;17.50;61.90
20446;DHT22;10382;49.140;9.234;2023-04-15T11:56:04;17.50;64.40
20446;DHT22;10382;49.140;9.234;2023-04-15T11:58:33;17.60;64.60
20446;DHT22;10382;49.140;9.234;2023-04-15T12:01:00;17.50;63.10
20446;DHT22;10382;49.140;9.234;2023-04-15T12:03:29;17.40;61.60
20446;DHT22;10382;49.140;9.234;2023-04-15T12:06:07;17.20;61.20
20446;DHT22;10382;49.140;9.234;2023-04-15T12:08:51;17.10;66.30
20446;DHT22;10382;49.140;9.234;2023-04-15T12:11:26;16.90;70.50
20446;DHT22;10382;49.140;9.234;2023-04-15T12:13:55;16.90;65.70
20446;DHT22;10382;49.140;9.234;2023-04-15T12:16:23;16.90;69.90
20446;DHT22;10382;49.140;9.234;2023-04-15T12:18:51;16.90;69.00
20446;DHT22;10382;49.140;9.234;2023-04-15T12:21:20;16.90;73.90
20446;DHT22;10382;49.140;9.234;2023-04-15T12:23:48;17.00;69.30
20446;DHT22;10382;49.140;9.234;2023-04-15T12:26:16;17.00;64.40
20446;DHT22;10382;49.140;9.234;2023-04-15T12:28:44;16.80;64.10
20446;DHT22;10382;49.140;9.234;2023-04-15T12:31:13;16.70;65.10
20446;DHT22;10382;49.140;9.234;2023-04-15T12:33:40;16.70;65.30
20446;DHT22;10382;49.140;9.234;2023-04-15T12:36:07;16.60;66.40
20446;DHT22;10382;49.140;9.234;2023-04-15T12:38:34;16.60;64.90
20446;DHT22;10382;49.140;9.234;2023-04-15T12:41:01;16.50;65.00
20446;DHT22;10382;49.140;9.234;2023-04-15T12:43:28;16.40;64.20
20446;DHT22;10382;49.140;9.234;2023-04-15T12:45:56;16.30;63.40
20446;DHT22;10382;49.140;9.234;2023-04-15T12:48:23;16.10;65.10
20446;DHT22;10382;49.140;9.234;2023-04-15T12:50:50;15.90;65.70
20446;DHT22;10382;49.140;9.234;2023-04-15T12:53:17;15.80;65.90
20446;DHT22;10382;49.140;9.234;2023-04-15T12:55:44;15.80;64.10
20446;DHT22;10382;49.140;9.234;2023-04-15T12:58:11;15.70;65.20
20446;DHT22;10382;49.140;9.234;2023-04-15T13:00:38;15.60;62.60
20446;DHT22;10382;49.140;9.234;2023-04-15T13:03:06;15.40;62.50
20446;DHT22;10382;49.140;9.234;2023-04-15T13:05:33;15.30;63.30
20446;DHT22;10382;49.140;9.234;2023-04-15T13:08:01;15.20;65.10
20446;DHT22;10382;49.140;9.234;2023-04-15T13:10:29;15.00;68.40
20446;DHT22;10382;49.140;9.234;2023-04-15T13:12:56;14.80;68.70
20446;DHT22;10382;49.140;9.234;2023-04-15T13:15:23;14.70;69.40
20446;DHT22;10382;49.140;9.234;2023-04-15T13:17:50;14.60;71.40
20446;DHT22;10382;49.140;9.234;2023-04-15T13:20:18;14.60;72.70
20446;DHT22;10382;49.140;9.234;2023-04-15T13:22:45;14.70;75.90
20446;DHT22;10382;49.140;9.234;2023-04-15T13:25:12;14.70;77.20
20446;DHT22;10382;49.140;9.234;2023-04-15T13:27:39;14.80;76.40
20446;DHT22;10382;49.140;9.234;2023-04-15T13:30:07;14.90;77.10
20446;DHT22;10382;49.140;9.234;2023-04-15T13:32:34;14.90;75.70
20446;DHT22;10382;49.140;9.234;2023-04-15T13:35:01;14.90;79.70
20446;DHT22;10382;49.140;9.234;2023-04-15T13:37:30;14.90;79.40
20446;DHT22;10382;49.140;9.234;2023-04-15T13:39:56;15.00;77.80
20446;DHT22;10382;49.140;9.234;2023-04-15T13:42:23;15.00;78.20
20446;DHT22;10382;49.140;9.234;2023-04-15T13:44:50;15.00;77.20
20446;DHT22;10382;49.140;9.234;2023-04-15T13:47:18;15.10;78.00
20446;DHT22;10382;49.140;9.234;2023-04-15T13:49:45;15.10;78.80
20446;DHT22;10382;49.140;9.234;2023-04-15T13:52:13;15.10;79.30
20446;DHT22;10382;49.140;9.234;2023-04-15T13:54:41;15.20;77.70
20446;DHT22;10382;49.140;9.234;2023-04-15T13:57:08;15.30;78.70
20446;DHT22;10382;49.140;9.234;2023-04-15T13:59:35;15.30;79.10
20446;DHT22;10382;49.140;9.234;2023-04-15T14:02:01;15.40;77.20
20446;DHT22;10382;49.140;9.234;2023-04-15T14:04:30;15.40;80.10
20446;DHT22;10382;49.140;9.234;2023-04-15T14:06:57;15.50;81.50
20446;DHT22;10382;49.140;9.234;2023-04-15T14:09:24;15.60;82.60
20446;DHT22;10382;49.140;9.234;2023-04-15T14:11:52;15.80;84.00
20446;DHT22;10382;49.140;9.234;2023-04-15T14:14:19;15.90;83.20
20446;DHT22;10382;49.140;9.234;2023-04-15T14:16:46;16.10;84.30
20446;DHT22;10382;49.140;9.234;2023-04-15T14:19:13;16.20;84.70
20446;DHT22;10382;49.140;9.234;2023-04-15T14:21:40;16.20;85.40
20446;DHT22;10382;49.140;9.234;2023-04-15T14:24:07;16.20;83.50
20446;DHT22;10382;49.140;9.234;2023-04-15T14:26:34;16.20;83.50
20446;DHT22;10382;49.140;9.234;2023-04-15T14:29:02;16.00;86.50
20446;DHT22;10382;49.140;9.234;2023-04-15T14:31:29;16.10;88.40
20446;DHT22;10382;49.140;9.234;2023-04-15T14:33:56;16.00;86.50
20446;DHT22;10382;49.140;9.234;2023-04-15T14:36:23;16.00;87.00
20446;DHT22;10382;49.140;9.234;2023-04-15T14:38:50;16.00;88.10
20446;DHT22;10382;49.140;9.234;2023-04-15T14:41:17;15.90;91.80
20446;DHT22;10382;49.140;9.234;2023-04-15T14:43:44;15.70;93.00
20446;DHT22;10382;49.140;9.234;2023-04-15T14:46:12;15.70;94.80
20446;DHT22;10382;49.140;9.234;2023-04-15T14:48:40;15.60;96.60
20446;DHT22;10382;49.140;9.234;2023-04-15T14:51:06;15.50;97.80
20446;DHT22;10382;49.140;9.234;2023-04-15T14:53:34;15.30;99.90
20446;DHT22;10382;49.140;9.234;2023-04-15T14:56:01;15.10;99.90
20446;DHT22;10382;49.140;9.234;2023-04-15T14:58:28;15.10;99.90
20446;DHT22;10382;49.140;9.234;2023-04-15T15:00:55;15.00;99.90
20446;DHT22;10382;49.140;9.234;2023-04-15T15:03:23;15.00;99.90
20446;DHT22;10382;49.140;9.234;2023-04-15T15:05:50;14.90;99.90
20446;DHT22;10382;49.140;9.234;2023-04-15T15:08:17;14.90;99.90
20446;DHT22;10382;49.140;9.234;2023-04-15T15:10:44;14.80;99.90
20446;DHT22;10382;49.140;9.234;2023-04-15T15:13:11;14.70;99.90
20446;DHT22;10382;49.140;9.234;2023-04-15T15:15:37;14.60;99.90
20446;DHT22;10382;49.140;9.234;2023-04-15T15:18:04;14.60;99.90
20446;DHT22;10382;49.140;9.234;2023-04-15T15:20:33;14.50;99.90
20446;DHT22;10382;49.140;9.234;2023-04-15T15:23:00;14.50;99.90
20446;DHT22;10382;49.140;9.234;2023-04-15T15:25:27;14.30;99.90
20446;DHT22;10382;49.140;9.234;2023-04-15T15:27:54;14.20;99.90
20446;DHT22;10382;49.140;9.234;2023-04-15T15:30:21;14.10;99.90
20446;DHT22;10382;49.140;9.234;2023-04-15T15:32:48;14.00;99.90
20446;DHT22;10382;49.140;9.234;2023-04-15T15:35:15;14.00;99.90
20446;DHT22;10382;49.140;9.234;2023-04-15T15:37:44;13.90;99.90
20446;DHT22;10382;49.140;9.234;2023-04-15T15:40:11;13.80;99.90
20446;DHT22;10382;49.140;9.234;2023-04-15T15:42:38;13.70;99.90